sensor_id;sensor_type;location;lat;lon;timestamp;pressure;altitude;pressure_sealevel;temperature;humidity
17635;BME280;8936;49.010;12.120;2023-07-28T00:00:09;97292.97;;;18.14;100.00
17635;BME280;8936;49.010;12.120;2023-07-28T00:02:35;97285.28;;;18.46;100.00
17635;BME280;8936;49.010;12.120;2023-07-28T00:05:01;97284.56;;;18.07;100.00
17635;BME280;8936;49.010;12.120;2023-07-28T00:07:28;97292.31;;;17.79;100.00
17635;BME280;8936;49.010;12.120;2023-07-28T00:09:54;97277.25;;;17.78;100.00
17635;BME280;8936;49.010;12.120;2023-07-28T00:12:21;97288.22;;;17.82;100.00
17635;BME280;8936;49.010;12.120;2023-07-28T00:14:50;97286.13;;;17.88;100.00
17635;BME280;8936;49.010;12.120;2023-07-28T00:17:17;97282.84;;;18.03;100.00
17635;BME280;8936;49.010;12.120;2023-07-28T00:19:44;97294.53;;;17.86;100.00
17635;BME280;8936;49.010;12.120;2023-07-28T00:22:10;97294.16;;;17.96;100.00
17635;BME280;8936;49.010;12.120;2023-07-28T00:24:37;97296.97;;;18.08;100.00
17635;BME280;8936;49.010;12.120;2023-07-28T00:27:03;97290.81;;;18.28;100.00
17635;BME280;8936;49.010;12.120;2023-07-28T00:29:30;97301.38;;;18.42;100.00
17635;BME280;8936;49.010;12.120;2023-07-28T00:31:56;97289.00;;;18.41;100.00
17635;BME280;8936;49.010;12.120;2023-07-28T00:34:24;97293.63;;;18.11;100.00
17635;BME280;8936;49.010;12.120;2023-07-28T00:36:50;97289.19;;;18.07;100.00
17635;BME280;8936;49.010;12.120;2023-07-28T00:39:17;97292.91;;;18.23;100.00
17635;BME280;8936;49.010;12.120;2023-07-28T00:41:45;97287.84;;;18.42;100.00
17635;BME280;8936;49.010;12.120;2023-07-28T00:44:11;97286.19;;;18.29;100.00
17635;BME280;8936;49.010;12.120;2023-07-28T00:46:39;97284.00;;;18.52;100.00
17635;BME280;8936;49.010;12.120;2023-07-28T00:49:06;97287.16;;;18.54;100.00
17635;BME280;8936;49.010;12.120;2023-07-28T00:51:34;97280.53;;;18.43;100.00
17635;BME280;8936;49.010;12.120;2023-07-28T00:54:01;97286.16;;;18.38;100.00
17635;BME280;8936;49.010;12.120;2023-07-28T00:56:29;97281.19;;;18.40;100.00
17635;BME280;8936;49.010;12.120;2023-07-28T00:58:55;97271.84;;;18.37;100.00
17635;BME280;8936;49.010;12.120;2023-07-28T01:01:22;97274.41;;;18.04;100.00
17635;BME280;8936;49.010;12.120;2023-07-28T01:03:48;97266.47;;;17.78;100.00
17635;BME280;8936;49.010;12.120;2023-07-28T01:06:18;97268.66;;;17.76;100.00
17635;BME280;8936;49.010;12.120;2023-07-28T01:08:48;97267.25;;;17.70;100.00
17635;BME280;8936;49.010;12.120;2023-07-28T01:11:15;97262.75;;;17.83;100.00
17635;BME280;8936;49.010;12.120;2023-07-28T01:13:42;97268.34;;;17.78;100.00
17635;BME280;8936;49.010;12.120;2023-07-28T01:16:08;97261.97;;;17.83;100.00
17635;BME280;8936;49.010;12.120;2023-07-28T01:18:35;97264.06;;;17.77;100.00
17635;BME280;8936;49.010;12.120;2023-07-28T01:21:02;97261.91;;;17.62;100.00
17635;BME280;8936;49.010;12.120;2023-07-28T01:23:34;97250.97;;;17.58;100.00
17635;BME280;8936;49.010;12.120;2023-07-28T01:26:05;97248.09;;;17.55;100.00
17635;BME280;8936;49.010;12.120;2023-07-28T01:28:35;97253.03;;;17.53;100.00
17635;BME280;8936;49.010;12.120;2023-07-28T01:31:02;97262.84;;;17.66;100.00
17635;BME280;8936;49.010;12.120;2023-07-28T01:33:28;97253.97;;;17.65;100.00
17635;BME280;8936;49.010;12.120;2023-07-28T01:35:55;97256.22;;;17.55;100.00
17635;BME280;8936;49.010;12.120;2023-07-28T01:38:21;97256.03;;;17.60;100.00
17635;BME280;8936;49.010;12.120;2023-07-28T01:40:48;97246.66;;;17.66;100.00
17635;BME280;8936;49.010;12.120;2023-07-28T01:43:14;97237.94;;;17.60;100.00
17635;BME280;8936;49.010;12.120;2023-07-28T01:45:42;97237.31;;;17.55;100.00
17635;BME280;8936;49.010;12.120;2023-07-28T01:48:08;97245.41;;;17.55;100.00
17635;BME280;8936;49.010;12.120;2023-07-28T01:50:35;97246.66;;;17.66;100.00
17635;BME280;8936;49.010;12.120;2023-07-28T01:53:01;97238.41;;;17.62;100.00
17635;BME280;8936;49.010;12.120;2023-07-28T01:55:28;97241.91;;;17.63;100.00
17635;BME280;8936;49.010;12.120;2023-07-28T01:57:55;97234.31;;;17.48;100.00
17635;BME280;8936;49.010;12.120;2023-07-28T02:00:22;97232.91;;;17.33;100.00
17635;BME280;8936;49.010;12.120;2023-07-28T02:02:50;97235.31;;;17.35;100.00
17635;BME280;8936;49.010;12.120;2023-07-28T02:05:16;97254.00;;;17.40;100.00
17635;BME280;8936;49.010;12.120;2023-07-28T02:07:42;97243.06;;;17.45;100.00
17635;BME280;8936;49.010;12.120;2023-07-28T02:10:09;97254.63;;;17.54;100.00
17635;BME280;8936;49.010;12.120;2023-07-28T02:12:36;97239.81;;;17.68;100.00
17635;BME280;8936;49.010;12.120;2023-07-28T02:15:02;97240.91;;;17.67;100.00
17635;BME280;8936;49.010;12.120;2023-07-28T02:17:29;97242.91;;;17.88;100.00
17635;BME280;8936;49.010;12.120;2023-07-28T02:19:57;97241.47;;;18.11;100.00
17635;BME280;8936;49.010;12.120;2023-07-28T02:22:23;97242.88;;;18.17;100.00
17635;BME280;8936;49.010;12.120;2023-07-28T02:24:52;97238.41;;;18.21;100.00
17635;BME280;8936;49.010;12.120;2023-07-28T02:27:18;97237.25;;;18.01;100.00
17635;BME280;8936;49.010;12.120;2023-07-28T02:29:44;97237.84;;;17.77;100.00
17635;BME280;8936;49.010;12.120;2023-07-28T02:32:11;97249.13;;;17.79;100.00
17635;BME280;8936;49.010;12.120;2023-07-28T02:34:37;97239.84;;;17.60;100.00
17635;BME280;8936;49.010;12.120;2023-07-28T02:37:05;97237.16;;;17.60;100.00
17635;BME280;8936;49.010;12.120;2023-07-28T02:39:31;97234.78;;;17.50;100.00
17635;BME280;8936;49.010;12.120;2023-07-28T02:41:58;97232.78;;;17.30;100.00
17635;BME280;8936;49.010;12.120;2023-07-28T02:44:24;97241.66;;;17.39;100.00
17635;BME280;8936;49.010;12.120;2023-07-28T02:46:50;97237.38;;;17.29;100.00
17635;BME280;8936;49.010;12.120;2023-07-28T02:49:17;97230.22;;;17.42;100.00
17635;BME280;8936;49.010;12.120;2023-07-28T02:51:44;97237.50;;;17.41;100.00
17635;BME280;8936;49.010;12.120;2023-07-28T02:54:11;97239.75;;;17.31;100.00
17635;BME280;8936;49.010;12.120;2023-07-28T02:56:37;97233.13;;;17.19;100.00
17635;BME280;8936;49.010;12.120;2023-07-28T02:59:04;97234.72;;;17.20;100.00
17635;BME280;8936;49.010;12.120;2023-07-28T03:01:31;97239.09;;;17.34;100.00
17635;BME280;8936;49.010;12.120;2023-07-28T03:03:58;97245.59;;;17.41;100.00
17635;BME280;8936;49.010;12.120;2023-07-28T03:06:24;97225.94;;;17.32;100.00
17635;BME280;8936;49.010;12.120;2023-07-28T03:08:54;97237.81;;;17.40;100.00
17635;BME280;8936;49.010;12.120;2023-07-28T03:11:21;97240.03;;;17.46;100.00
17635;BME280;8936;49.010;12.120;2023-07-28T03:13:48;97238.59;;;17.40;100.00
17635;BME280;8936;49.010;12.120;2023-07-28T03:16:14;97241.75;;;17.51;100.00
17635;BME280;8936;49.010;12.120;2023-07-28T03:18:40;97239.94;;;17.72;100.00
17635;BME280;8936;49.010;12.120;2023-07-28T03:21:08;97239.69;;;17.56;100.00
17635;BME280;8936;49.010;12.120;2023-07-28T03:23:34;97233.19;;;17.57;100.00
17635;BME280;8936;49.010;12.120;2023-07-28T03:26:01;97231.41;;;17.61;100.00
17635;BME280;8936;49.010;12.120;2023-07-28T03:28:28;97240.16;;;17.67;100.00
17635;BME280;8936;49.010;12.120;2023-07-28T03:30:55;97239.44;;;17.78;100.00
17635;BME280;8936;49.010;12.120;2023-07-28T03:33:21;97233.81;;;17.54;100.00
17635;BME280;8936;49.010;12.120;2023-07-28T03:35:47;97238.41;;;17.54;100.00
17635;BME280;8936;49.010;12.120;2023-07-28T03:38:14;97240.97;;;17.59;100.00
17635;BME280;8936;49.010;12.120;2023-07-28T03:40:40;97231.56;;;17.65;100.00
17635;BME280;8936;49.010;12.120;2023-07-28T03:43:08;97232.41;;;17.57;100.00
17635;BME280;8936;49.010;12.120;2023-07-28T03:45:36;97229.53;;;17.91;100.00
17635;BME280;8936;49.010;12.120;2023-07-28T03:48:03;97231.38;;;17.99;100.00
17635;BME280;8936;49.010;12.120;2023-07-28T03:50:29;97223.53;;;17.86;100.00
17635;BME280;8936;49.010;12.120;2023-07-28T03:52:55;97216.94;;;17.95;100.00
17635;BME280;8936;49.010;12.120;2023-07-28T03:55:22;97232.22;;;17.91;100.00
17635;BME280;8936;49.010;12.120;2023-07-28T03:57:48;97228.97;;;17.77;100.00
17635;BME280;8936;49.010;12.120;2023-07-28T04:00:15;97234.78;;;17.50;100.00
17635;BME280;8936;49.010;12.120;2023-07-28T04:02:42;97244.91;;;17.61;100.00
17635;BME280;8936;49.010;12.120;2023-07-28T04:05:09;97234.44;;;17.89;100.00
17635;BME280;8936;49.010;12.120;2023-07-28T04:07:35;97229.56;;;17.83;100.00
17635;BME280;8936;49.010;12.120;2023-07-28T04:10:02;97237.63;;;17.91;100.00
17635;BME280;8936;49.010;12.120;2023-07-28T04:12:28;97233.84;;;18.13;100.00
17635;BME280;8936;49.010;12.120;2023-07-28T04:14:54;97240.50;;;18.15;100.00
17635;BME280;8936;49.010;12.120;2023-07-28T04:17:21;97235.44;;;17.85;100.00
17635;BME280;8936;49.010;12.120;2023-07-28T04:19:48;97240.97;;;18.17;100.00
17635;BME280;8936;49.010;12.120;2023-07-28T04:22:15;97236.88;;;18.32;100.00
17635;BME280;8936;49.010;12.120;2023-07-28T04:24:46;97239.06;;;18.39;100.00
17635;BME280;8936;49.010;12.120;2023-07-28T04:27:12;97238.59;;;18.16;100.00
17635;BME280;8936;49.010;12.120;2023-07-28T04:29:39;97236.34;;;18.18;100.00
17635;BME280;8936;49.010;12.120;2023-07-28T04:32:06;97240.50;;;17.86;100.00
17635;BME280;8936;49.010;12.120;2023-07-28T04:34:32;97252.63;;;18.09;100.00
17635;BME280;8936;49.010;12.120;2023-07-28T04:37:00;97241.69;;;18.26;100.00
17635;BME280;8936;49.010;12.120;2023-07-28T04:39:26;97245.13;;;18.35;100.00
17635;BME280;8936;49.010;12.120;2023-07-28T04:41:53;97244.28;;;18.44;100.00
17635;BME280;8936;49.010;12.120;2023-07-28T04:44:19;97244.03;;;18.57;100.00
17635;BME280;8936;49.010;12.120;2023-07-28T04:46:45;97243.13;;;18.74;100.00
17635;BME280;8936;49.010;12.120;2023-07-28T04:49:12;97234.78;;;18.38;100.00
17635;BME280;8936;49.010;12.120;2023-07-28T04:51:39;97236.94;;;18.53;100.00
17635;BME280;8936;49.010;12.120;2023-07-28T04:54:06;97240.69;;;18.60;100.00
17635;BME280;8936;49.010;12.120;2023-07-28T04:56:33;97239.16;;;18.71;100.00
17635;BME280;8936;49.010;12.120;2023-07-28T04:58:59;97238.41;;;18.42;100.00
17635;BME280;8936;49.010;12.120;2023-07-28T05:01:26;97236.78;;;18.49;100.00
17635;BME280;8936;49.010;12.120;2023-07-28T05:03:52;97231.47;;;18.11;100.00
17635;BME280;8936;49.010;12.120;2023-07-28T05:06:18;97240.44;;;18.03;100.00
17635;BME280;8936;49.010;12.120;2023-07-28T05:08:45;97248.31;;;17.88;100.00
17635;BME280;8936;49.010;12.120;2023-07-28T05:11:12;97249.34;;;17.66;100.00
17635;BME280;8936;49.010;12.120;2023-07-28T05:13:39;97244.84;;;17.78;100.00
17635;BME280;8936;49.010;12.120;2023-07-28T05:16:05;97254.31;;;17.93;100.00
17635;BME280;8936;49.010;12.120;2023-07-28T05:18:31;97254.66;;;18.12;100.00
17635;BME280;8936;49.010;12.120;2023-07-28T05:20:58;97261.03;;;18.16;100.00
17635;BME280;8936;49.010;12.120;2023-07-28T05:23:24;97260.59;;;18.06;100.00
17635;BME280;8936;49.010;12.120;2023-07-28T05:25:50;97262.72;;;18.21;100.00
17635;BME280;8936;49.010;12.120;2023-07-28T05:28:18;97268.25;;;18.24;100.00
17635;BME280;8936;49.010;12.120;2023-07-28T05:30:44;97270.09;;;18.12;100.00
17635;BME280;8936;49.010;12.120;2023-07-28T05:33:11;97281.31;;;18.22;100.00
17635;BME280;8936;49.010;12.120;2023-07-28T05:35:37;97267.97;;;18.17;100.00
17635;BME280;8936;49.010;12.120;2023-07-28T05:38:04;97268.84;;;18.09;100.00
17635;BME280;8936;49.010;12.120;2023-07-28T05:40:31;97276.72;;;17.94;100.00
17635;BME280;8936;49.010;12.120;2023-07-28T05:42:57;97285.66;;;17.86;100.00
17635;BME280;8936;49.010;12.120;2023-07-28T05:45:25;97276.00;;;17.67;100.00
17635;BME280;8936;49.010;12.120;2023-07-28T05:47:51;97271.91;;;17.70;100.00
17635;BME280;8936;49.010;12.120;2023-07-28T05:50:18;97275.25;;;17.67;100.00
17635;BME280;8936;49.010;12.120;2023-07-28T05:52:44;97267.16;;;17.67;100.00
17635;BME280;8936;49.010;12.120;2023-07-28T05:55:11;97270.06;;;17.83;100.00
17635;BME280;8936;49.010;12.120;2023-07-28T05:57:38;97281.59;;;18.00;100.00
17635;BME280;8936;49.010;12.120;2023-07-28T06:00:05;97277.47;;;18.03;100.00
17635;BME280;8936;49.010;12.120;2023-07-28T06:02:36;97286.41;;;17.95;100.00
17635;BME280;8936;49.010;12.120;2023-07-28T06:05:02;97275.47;;;17.91;100.00
17635;BME280;8936;49.010;12.120;2023-07-28T06:07:28;97282.13;;;17.94;100.00
17635;BME280;8936;49.010;12.120;2023-07-28T06:09:55;97281.97;;;17.90;100.00
17635;BME280;8936;49.010;12.120;2023-07-28T06:12:21;97283.81;;;17.98;100.00
17635;BME280;8936;49.010;12.120;2023-07-28T06:14:48;97290.34;;;17.97;100.00
17635;BME280;8936;49.010;12.120;2023-07-28T06:17:14;97287.81;;;17.92;100.00
17635;BME280;8936;49.010;12.120;2023-07-28T06:19:42;97275.31;;;17.88;100.00
17635;BME280;8936;49.010;12.120;2023-07-28T06:22:08;97285.50;;;17.82;100.00
17635;BME280;8936;49.010;12.120;2023-07-28T06:24:35;97279.72;;;17.92;100.00
17635;BME280;8936;49.010;12.120;2023-07-28T06:27:01;97291.56;;;18.08;100.00
17635;BME280;8936;49.010;12.120;2023-07-28T06:29:32;97298.31;;;18.23;100.00
17635;BME280;8936;49.010;12.120;2023-07-28T06:31:58;97301.44;;;18.33;100.00
17635;BME280;8936;49.010;12.120;2023-07-28T06:34:25;97298.63;;;18.51;100.00
17635;BME280;8936;49.010;12.120;2023-07-28T06:36:52;97296.09;;;18.75;100.00
17635;BME280;8936;49.010;12.120;2023-07-28T06:39:19;97308.53;;;18.88;100.00
17635;BME280;8936;49.010;12.120;2023-07-28T06:41:45;97307.47;;;19.01;100.00
17635;BME280;8936;49.010;12.120;2023-07-28T06:44:11;97309.34;;;19.09;100.00
17635;BME280;8936;49.010;12.120;2023-07-28T06:46:38;97326.47;;;19.13;100.00
17635;BME280;8936;49.010;12.120;2023-07-28T06:49:04;97322.78;;;19.18;100.00
17635;BME280;8936;49.010;12.120;2023-07-28T06:51:31;97315.56;;;19.22;100.00
17635;BME280;8936;49.010;12.120;2023-07-28T06:53:58;97311.16;;;19.17;100.00
17635;BME280;8936;49.010;12.120;2023-07-28T06:56:25;97318.28;;;19.22;100.00
17635;BME280;8936;49.010;12.120;2023-07-28T06:58:51;97322.03;;;19.29;100.00
17635;BME280;8936;49.010;12.120;2023-07-28T07:01:18;97316.69;;;19.42;100.00
17635;BME280;8936;49.010;12.120;2023-07-28T07:03:44;97317.25;;;19.47;100.00
17635;BME280;8936;49.010;12.120;2023-07-28T07:06:11;97306.00;;;19.45;100.00
17635;BME280;8936;49.010;12.120;2023-07-28T07:08:37;97303.84;;;19.51;100.00
17635;BME280;8936;49.010;12.120;2023-07-28T07:11:05;97300.69;;;19.49;100.00
17635;BME280;8936;49.010;12.120;2023-07-28T07:13:31;97309.13;;;19.47;100.00
17635;BME280;8936;49.010;12.120;2023-07-28T07:15:58;97304.53;;;19.48;100.00
17635;BME280;8936;49.010;12.120;2023-07-28T07:18:24;97308.34;;;19.47;100.00
17635;BME280;8936;49.010;12.120;2023-07-28T07:20:50;97312.53;;;19.44;100.00
17635;BME280;8936;49.010;12.120;2023-07-28T07:23:17;97299.16;;;19.39;100.00
17635;BME280;8936;49.010;12.120;2023-07-28T07:25:43;97288.94;;;19.45;100.00
17635;BME280;8936;49.010;12.120;2023-07-28T07:28:11;97293.44;;;19.40;100.00
17635;BME280;8936;49.010;12.120;2023-07-28T07:30:37;97306.81;;;19.58;100.00
17635;BME280;8936;49.010;12.120;2023-07-28T07:33:05;97308.84;;;19.61;100.00
17635;BME280;8936;49.010;12.120;2023-07-28T07:35:35;97304.53;;;19.48;100.00
17635;BME280;8936;49.010;12.120;2023-07-28T07:38:01;97320.91;;;19.51;100.00
17635;BME280;8936;49.010;12.120;2023-07-28T07:40:27;97310.38;;;19.50;100.00
17635;BME280;8936;49.010;12.120;2023-07-28T07:42:54;97317.63;;;19.46;100.00
17635;BME280;8936;49.010;12.120;2023-07-28T07:45:22;97310.38;;;19.50;100.00
17635;BME280;8936;49.010;12.120;2023-07-28T07:47:48;97309.50;;;19.46;100.00
17635;BME280;8936;49.010;12.120;2023-07-28T07:50:15;97327.81;;;19.73;100.00
17635;BME280;8936;49.010;12.120;2023-07-28T07:52:41;97328.06;;;19.80;100.00
17635;BME280;8936;49.010;12.120;2023-07-28T07:55:08;97325.22;;;19.64;100.00
17635;BME280;8936;49.010;12.120;2023-07-28T07:57:35;97320.41;;;20.06;100.00
17635;BME280;8936;49.010;12.120;2023-07-28T08:00:02;97313.63;;;20.12;100.00
17635;BME280;8936;49.010;12.120;2023-07-28T08:02:30;97312.75;;;20.08;100.00
17635;BME280;8936;49.010;12.120;2023-07-28T08:04:56;97316.00;;;20.02;100.00
17635;BME280;8936;49.010;12.120;2023-07-28T08:07:22;97316.22;;;20.09;100.00
17635;BME280;8936;49.010;12.120;2023-07-28T08:09:49;97318.75;;;20.26;100.00
17635;BME280;8936;49.010;12.120;2023-07-28T08:12:16;97322.47;;;20.45;100.00
17635;BME280;8936;49.010;12.120;2023-07-28T08:14:42;97326.84;;;20.62;100.00
17635;BME280;8936;49.010;12.120;2023-07-28T08:17:09;97316.00;;;20.50;100.00
17635;BME280;8936;49.010;12.120;2023-07-28T08:19:37;97321.31;;;20.59;100.00
17635;BME280;8936;49.010;12.120;2023-07-28T08:22:03;97317.59;;;20.51;100.00
17635;BME280;8936;49.010;12.120;2023-07-28T08:24:31;97318.59;;;20.59;100.00
17635;BME280;8936;49.010;12.120;2023-07-28T08:26:58;97317.13;;;20.49;100.00
17635;BME280;8936;49.010;12.120;2023-07-28T08:29:25;97337.16;;;20.44;100.00
17635;BME280;8936;49.010;12.120;2023-07-28T08:31:51;97342.91;;;20.55;100.00
17635;BME280;8936;49.010;12.120;2023-07-28T08:34:18;97338.94;;;20.53;100.00
17635;BME280;8936;49.010;12.120;2023-07-28T08:36:46;97348.63;;;20.78;100.00
17635;BME280;8936;49.010;12.120;2023-07-28T08:39:12;97351.03;;;20.79;100.00
17635;BME280;8936;49.010;12.120;2023-07-28T08:41:40;97344.22;;;20.85;100.00
17635;BME280;8936;49.010;12.120;2023-07-28T08:44:07;97356.13;;;20.57;100.00
17635;BME280;8936;49.010;12.120;2023-07-28T08:46:33;97356.47;;;20.43;100.00
17635;BME280;8936;49.010;12.120;2023-07-28T08:49:00;97366.75;;;20.50;100.00
17635;BME280;8936;49.010;12.120;2023-07-28T08:51:27;97363.16;;;20.45;100.00
17635;BME280;8936;49.010;12.120;2023-07-28T08:53:54;97360.34;;;20.42;100.00
17635;BME280;8936;49.010;12.120;2023-07-28T08:56:21;97363.50;;;20.44;100.00
17635;BME280;8936;49.010;12.120;2023-07-28T08:58:48;97367.66;;;20.66;100.00
17635;BME280;8936;49.010;12.120;2023-07-28T09:01:15;97365.84;;;20.70;100.00
17635;BME280;8936;49.010;12.120;2023-07-28T09:03:41;97370.63;;;20.49;100.00
17635;BME280;8936;49.010;12.120;2023-07-28T09:06:08;97368.66;;;20.61;100.00
17635;BME280;8936;49.010;12.120;2023-07-28T09:08:35;97378.41;;;20.50;100.00
17635;BME280;8936;49.010;12.120;2023-07-28T09:11:03;97374.66;;;20.42;100.00
17635;BME280;8936;49.010;12.120;2023-07-28T09:13:35;97376.38;;;20.59;100.00
17635;BME280;8936;49.010;12.120;2023-07-28T09:16:01;97385.41;;;20.51;100.00
17635;BME280;8936;49.010;12.120;2023-07-28T09:18:29;97384.06;;;20.45;100.00
17635;BME280;8936;49.010;12.120;2023-07-28T09:20:55;97386.09;;;20.60;100.00
17635;BME280;8936;49.010;12.120;2023-07-28T09:23:27;97386.97;;;20.52;100.00
17635;BME280;8936;49.010;12.120;2023-07-28T09:25:58;97382.47;;;20.44;100.00
17635;BME280;8936;49.010;12.120;2023-07-28T09:28:27;97394.44;;;20.55;100.00
17635;BME280;8936;49.010;12.120;2023-07-28T09:31:02;97386.22;;;20.52;100.00
17635;BME280;8936;49.010;12.120;2023-07-28T09:33:30;97399.66;;;20.72;100.00
17635;BME280;8936;49.010;12.120;2023-07-28T09:35:56;97395.22;;;20.68;100.00
17635;BME280;8936;49.010;12.120;2023-07-28T09:38:24;97389.38;;;20.54;100.00
17635;BME280;8936;49.010;12.120;2023-07-28T09:40:53;97388.25;;;20.67;100.00
17635;BME280;8936;49.010;12.120;2023-07-28T09:43:20;97401.34;;;20.65;100.00
17635;BME280;8936;49.010;12.120;2023-07-28T09:45:48;97399.31;;;20.62;100.00
17635;BME280;8936;49.010;12.120;2023-07-28T09:48:14;97402.25;;;20.57;100.00
17635;BME280;8936;49.010;12.120;2023-07-28T09:50:42;97397.06;;;20.52;100.00
17635;BME280;8936;49.010;12.120;2023-07-28T09:53:09;97400.44;;;20.61;100.00
17635;BME280;8936;49.010;12.120;2023-07-28T09:55:38;97400.09;;;20.62;100.00
17635;BME280;8936;49.010;12.120;2023-07-28T09:58:05;97414.00;;;20.73;100.00
17635;BME280;8936;49.010;12.120;2023-07-28T10:00:32;97423.41;;;20.63;100.00
17635;BME280;8936;49.010;12.120;2023-07-28T10:03:00;97389.69;;;20.76;100.00
17635;BME280;8936;49.010;12.120;2023-07-28T10:05:27;97399.97;;;20.59;100.00
17635;BME280;8936;49.010;12.120;2023-07-28T10:07:54;97401.13;;;20.70;100.00
17635;BME280;8936;49.010;12.120;2023-07-28T10:10:21;97406.66;;;20.73;100.00
17635;BME280;8936;49.010;12.120;2023-07-28T10:12:48;97397.94;;;20.80;100.00
17635;BME280;8936;49.010;12.120;2023-07-28T10:15:15;97401.78;;;20.79;100.00
17635;BME280;8936;49.010;12.120;2023-07-28T10:17:45;97390.78;;;20.99;100.00
17635;BME280;8936;49.010;12.120;2023-07-28T10:20:34;97393.38;;;20.96;100.00
17635;BME280;8936;49.010;12.120;2023-07-28T10:23:04;97396.56;;;20.98;100.00
17635;BME280;8936;49.010;12.120;2023-07-28T10:25:32;97390.94;;;21.31;100.00
17635;BME280;8936;49.010;12.120;2023-07-28T10:27:59;97395.06;;;21.52;100.00
17635;BME280;8936;49.010;12.120;2023-07-28T10:30:25;97395.03;;;21.25;100.00
17635;BME280;8936;49.010;12.120;2023-07-28T10:32:51;97384.13;;;21.37;100.00
17635;BME280;8936;49.010;12.120;2023-07-28T10:35:25;97389.25;;;21.54;100.00
17635;BME280;8936;49.010;12.120;2023-07-28T10:37:54;97384.38;;;21.60;100.00
17635;BME280;8936;49.010;12.120;2023-07-28T10:40:22;97385.03;;;21.69;100.00
17635;BME280;8936;49.010;12.120;2023-07-28T10:42:49;97388.94;;;21.56;100.00
17635;BME280;8936;49.010;12.120;2023-07-28T10:45:15;97391.34;;;21.45;100.00
17635;BME280;8936;49.010;12.120;2023-07-28T10:47:42;97390.28;;;21.77;100.00
17635;BME280;8936;49.010;12.120;2023-07-28T10:50:09;97385.81;;;21.97;100.00
17635;BME280;8936;49.010;12.120;2023-07-28T10:52:38;97390.59;;;22.03;100.00
17635;BME280;8936;49.010;12.120;2023-07-28T10:55:06;97388.63;;;21.45;100.00
17635;BME280;8936;49.010;12.120;2023-07-28T10:57:37;97382.44;;;21.88;100.00
17635;BME280;8936;49.010;12.120;2023-07-28T11:00:04;97382.34;;;21.84;100.00
17635;BME280;8936;49.010;12.120;2023-07-28T11:02:30;97384.81;;;21.89;100.00
17635;BME280;8936;49.010;12.120;2023-07-28T11:04:58;97387.06;;;21.87;100.00
17635;BME280;8936;49.010;12.120;2023-07-28T11:07:25;97385.88;;;21.73;100.00
17635;BME280;8936;49.010;12.120;2023-07-28T11:09:52;97379.00;;;21.75;100.00
17635;BME280;8936;49.010;12.120;2023-07-28T11:12:20;97381.09;;;21.38;100.00
17635;BME280;8936;49.010;12.120;2023-07-28T11:14:47;97383.81;;;21.38;100.00
17635;BME280;8936;49.010;12.120;2023-07-28T11:17:14;97380.84;;;21.87;100.00
17635;BME280;8936;49.010;12.120;2023-07-28T11:19:40;97383.00;;;22.09;100.00
17635;BME280;8936;49.010;12.120;2023-07-28T11:22:07;97385.78;;;22.28;100.00
17635;BME280;8936;49.010;12.120;2023-07-28T11:24:33;97384.94;;;22.24;100.00
17635;BME280;8936;49.010;12.120;2023-07-28T11:26:59;97392.63;;;21.91;100.00
17635;BME280;8936;49.010;12.120;2023-07-28T11:29:29;97382.13;;;22.05;100.00
17635;BME280;8936;49.010;12.120;2023-07-28T11:31:56;97376.59;;;21.74;100.00
17635;BME280;8936;49.010;12.120;2023-07-28T11:34:23;97381.13;;;21.97;100.00
17635;BME280;8936;49.010;12.120;2023-07-28T11:36:49;97373.78;;;22.14;100.00
17635;BME280;8936;49.010;12.120;2023-07-28T11:39:16;97374.84;;;22.25;100.00
17635;BME280;8936;49.010;12.120;2023-07-28T11:41:43;97373.25;;;21.65;100.00
17635;BME280;8936;49.010;12.120;2023-07-28T11:44:09;97369.41;;;21.66;100.00
17635;BME280;8936;49.010;12.120;2023-07-28T11:46:38;97375.91;;;21.77;100.00
17635;BME280;8936;49.010;12.120;2023-07-28T11:49:09;97377.19;;;21.95;100.00
17635;BME280;8936;49.010;12.120;2023-07-28T11:51:38;97370.88;;;21.91;100.00
17635;BME280;8936;49.010;12.120;2023-07-28T11:54:08;97371.25;;;22.05;100.00
17635;BME280;8936;49.010;12.120;2023-07-28T11:56:36;97371.06;;;21.98;100.00
17635;BME280;8936;49.010;12.120;2023-07-28T11:59:02;97354.94;;;22.21;100.00
17635;BME280;8936;49.010;12.120;2023-07-28T12:01:29;97365.41;;;22.53;100.00
17635;BME280;8936;49.010;12.120;2023-07-28T12:03:57;97366.84;;;22.16;100.00
17635;BME280;8936;49.010;12.120;2023-07-28T12:06:25;97369.03;;;22.11;100.00
17635;BME280;8936;49.010;12.120;2023-07-28T12:08:52;97367.72;;;22.51;100.00
17635;BME280;8936;49.010;12.120;2023-07-28T12:11:20;97368.09;;;22.34;100.00
17635;BME280;8936;49.010;12.120;2023-07-28T12:13:49;97376.13;;;22.62;100.00
17635;BME280;8936;49.010;12.120;2023-07-28T12:16:30;97371.16;;;22.33;100.00
17635;BME280;8936;49.010;12.120;2023-07-28T12:18:59;97383.63;;;22.65;100.00
17635;BME280;8936;49.010;12.120;2023-07-28T12:21:25;97375.72;;;22.95;100.00
17635;BME280;8936;49.010;12.120;2023-07-28T12:23:51;97358.97;;;23.12;100.00
17635;BME280;8936;49.010;12.120;2023-07-28T12:26:18;97375.34;;;22.62;100.00
17635;BME280;8936;49.010;12.120;2023-07-28T12:28:44;97364.97;;;22.83;100.00
17635;BME280;8936;49.010;12.120;2023-07-28T12:31:11;97368.22;;;23.07;100.00
17635;BME280;8936;49.010;12.120;2023-07-28T12:33:37;97372.00;;;23.03;100.00
17635;BME280;8936;49.010;12.120;2023-07-28T12:36:05;97358.84;;;23.05;100.00
17635;BME280;8936;49.010;12.120;2023-07-28T12:38:32;97372.16;;;23.10;100.00
17635;BME280;8936;49.010;12.120;2023-07-28T12:40:58;97367.97;;;22.97;100.00
17635;BME280;8936;49.010;12.120;2023-07-28T12:43:24;97384.72;;;23.15;100.00
17635;BME280;8936;49.010;12.120;2023-07-28T12:45:51;97380.03;;;23.15;100.00
17635;BME280;8936;49.010;12.120;2023-07-28T12:48:19;97373.44;;;23.16;100.00